createdAt,value
2018-07-31T00:00:49.734Z,20.85
2018-07-31T00:02:49.931Z,20.77
2018-07-31T00:04:50.352Z,20.73
2018-07-31T00:06:50.540Z,20.67
2018-07-31T00:08:50.658Z,20.62
2018-07-31T00:10:49.867Z,20.56
2018-07-31T00:12:49.930Z,20.53
2018-07-31T00:14:49.967Z,20.49
2018-07-31T00:16:50.307Z,20.46
2018-07-31T00:18:50.406Z,20.41
2018-07-31T00:20:50.493Z,20.37
2018-07-31T00:22:50.444Z,20.33
2018-07-31T00:24:50.474Z,20.29
2018-07-31T00:26:49.789Z,20.28
2018-07-31T00:28:49.898Z,20.26
2018-07-31T00:30:49.887Z,20.27
2018-07-31T00:32:49.850Z,20.28
2018-07-31T00:34:50.499Z,20.28
2018-07-31T00:36:49.826Z,20.27
2018-07-31T00:38:49.768Z,20.22
2018-07-31T00:40:49.790Z,20.20
2018-07-31T00:42:49.908Z,20.17
2018-07-31T00:44:50.075Z,20.15
2018-07-31T00:46:50.351Z,20.14
2018-07-31T00:48:50.373Z,20.12
2018-07-31T00:50:50.425Z,20.09
2018-07-31T00:52:50.489Z,20.05
2018-07-31T00:54:50.509Z,20.04
2018-07-31T00:56:49.821Z,19.95
2018-07-31T00:58:49.811Z,19.92
2018-07-31T01:00:49.960Z,19.89
2018-07-31T01:02:49.982Z,19.86
2018-07-31T01:04:50.492Z,19.86
2018-07-31T01:06:49.834Z,19.81
2018-07-31T01:08:50.005Z,19.76
2018-07-31T01:10:50.251Z,19.73
2018-07-31T01:12:50.431Z,19.66
2018-07-31T01:14:50.494Z,19.64
2018-07-31T01:16:49.853Z,19.62
2018-07-31T01:18:50.146Z,19.57
2018-07-31T01:20:50.160Z,19.52
2018-07-31T01:22:50.226Z,19.52
2018-07-31T01:24:50.278Z,19.43
2018-07-31T01:26:50.647Z,19.37
2018-07-31T01:28:49.864Z,19.33
2018-07-31T01:30:49.887Z,19.28
2018-07-31T01:32:49.877Z,19.22
2018-07-31T01:34:50.359Z,19.16
2018-07-31T01:36:50.650Z,19.11
2018-07-31T01:38:49.822Z,19.10
2018-07-31T01:40:49.879Z,19.09
2018-07-31T01:42:49.892Z,19.06
2018-07-31T01:44:50.005Z,19.01
2018-07-31T01:46:50.297Z,18.99
2018-07-31T01:48:50.331Z,18.95
2018-07-31T01:50:50.360Z,18.94
2018-07-31T01:52:50.525Z,18.89
2018-07-31T01:54:49.725Z,18.84
2018-07-31T01:56:50.016Z,18.82
2018-07-31T01:58:50.210Z,18.79
2018-07-31T02:00:50.236Z,18.74
2018-07-31T02:02:50.306Z,18.72
2018-07-31T02:04:49.904Z,18.71
2018-07-31T02:06:50.111Z,18.70
2018-07-31T02:08:50.140Z,18.68
2018-07-31T02:10:50.170Z,18.67
2018-07-31T02:12:50.267Z,18.68
2018-07-31T02:14:50.277Z,18.67
2018-07-31T02:16:50.416Z,18.68
2018-07-31T02:18:50.448Z,18.69
2018-07-31T02:20:50.667Z,18.66
2018-07-31T02:22:49.820Z,18.66
2018-07-31T02:24:49.812Z,18.64
2018-07-31T02:26:50.029Z,18.62
2018-07-31T02:28:50.052Z,18.60
2018-07-31T02:30:50.140Z,18.56
2018-07-31T02:32:50.205Z,18.56
2018-07-31T02:34:49.779Z,18.48
2018-07-31T02:36:50.055Z,18.44
2018-07-31T02:38:50.114Z,18.40
2018-07-31T02:40:50.280Z,18.36
2018-07-31T02:42:50.428Z,18.35
2018-07-31T02:44:50.378Z,18.34
2018-07-31T02:46:51.010Z,18.33
2018-07-31T02:48:50.177Z,18.27
2018-07-31T02:50:50.278Z,18.25
2018-07-31T02:52:50.293Z,18.20
2018-07-31T02:54:50.587Z,18.18
2018-07-31T02:56:49.891Z,18.17
2018-07-31T02:58:50.025Z,18.15
2018-07-31T03:00:50.046Z,18.13
2018-07-31T03:02:50.118Z,18.12
2018-07-31T03:04:49.755Z,18.10
2018-07-31T03:06:50.053Z,18.09
2018-07-31T03:08:50.137Z,18.11
2018-07-31T03:10:50.139Z,18.09
2018-07-31T03:12:50.300Z,18.06
2018-07-31T03:14:50.472Z,18.04
2018-07-31T03:16:49.771Z,18.02
2018-07-31T03:18:49.817Z,18.01
2018-07-31T03:20:50.168Z,17.98
2018-07-31T03:22:50.228Z,17.97
2018-07-31T03:24:50.328Z,17.96
2018-07-31T03:26:49.690Z,17.96
2018-07-31T03:28:49.829Z,17.88
2018-07-31T03:30:49.977Z,17.84
2018-07-31T03:32:50.092Z,17.84
2018-07-31T03:34:50.457Z,17.82
2018-07-31T03:36:49.718Z,17.80
2018-07-31T03:38:49.914Z,17.80
2018-07-31T03:40:49.944Z,17.79
2018-07-31T03:42:49.988Z,17.79
2018-07-31T03:44:49.953Z,17.79
2018-07-31T03:46:50.375Z,17.77
2018-07-31T03:48:50.458Z,17.75
2018-07-31T03:50:50.481Z,17.74
2018-07-31T03:52:50.518Z,17.75
2018-07-31T03:54:49.717Z,17.76
2018-07-31T03:56:50.076Z,17.77
2018-07-31T03:58:50.098Z,17.75
2018-07-31T04:00:50.124Z,17.75
2018-07-31T04:02:50.324Z,17.74
2018-07-31T04:04:50.112Z,17.74
2018-07-31T04:06:50.405Z,17.75
2018-07-31T04:08:50.479Z,17.77
2018-07-31T04:10:50.476Z,17.79
2018-07-31T04:12:50.621Z,17.81
2018-07-31T04:14:49.844Z,17.81
2018-07-31T04:16:50.465Z,17.82
2018-07-31T04:18:50.657Z,17.82
2018-07-31T04:20:49.893Z,17.82
2018-07-31T04:22:50.229Z,17.83
2018-07-31T04:24:50.310Z,17.85
2018-07-31T04:26:50.284Z,17.89
2018-07-31T04:28:50.239Z,17.91
2018-07-31T04:30:50.517Z,17.94
2018-07-31T04:32:50.526Z,17.96
2018-07-31T04:34:50.140Z,17.99
2018-07-31T04:36:50.265Z,18.04
2018-07-31T04:38:50.280Z,18.09
2018-07-31T04:40:50.517Z,18.16
2018-07-31T04:42:50.630Z,18.22
2018-07-31T04:44:49.799Z,18.25
2018-07-31T04:46:49.971Z,18.32
2018-07-31T04:48:50.013Z,18.41
2018-07-31T04:50:50.274Z,18.56
2018-07-31T04:52:50.317Z,18.63
2018-07-31T04:54:50.388Z,18.71
2018-07-31T04:56:51.046Z,18.78
2018-07-31T04:58:50.345Z,18.83
2018-07-31T05:00:50.379Z,18.91
2018-07-31T05:02:50.373Z,19.02
2018-07-31T05:04:49.914Z,19.13
2018-07-31T05:06:50.231Z,19.23
2018-07-31T05:08:50.331Z,19.23
2018-07-31T05:10:50.420Z,19.43
2018-07-31T05:12:50.476Z,19.49
2018-07-31T05:14:50.673Z,19.63
2018-07-31T05:16:50.079Z,19.69
2018-07-31T05:18:50.173Z,19.86
2018-07-31T05:20:50.228Z,19.99
2018-07-31T05:22:50.222Z,20.05
2018-07-31T05:24:50.405Z,20.21
2018-07-31T05:26:49.797Z,20.36
2018-07-31T05:28:49.865Z,20.47
2018-07-31T05:30:49.900Z,20.58
2018-07-31T05:32:50.884Z,20.65
2018-07-31T05:34:50.551Z,20.75
2018-07-31T05:36:50.619Z,20.84
2018-07-31T05:38:50.664Z,20.96
2018-07-31T05:40:50.635Z,21.02
2018-07-31T05:42:49.769Z,21.22
2018-07-31T05:44:49.901Z,21.30
2018-07-31T05:46:50.173Z,21.52
2018-07-31T05:48:50.174Z,21.59
2018-07-31T05:50:50.335Z,21.84
2018-07-31T05:52:50.398Z,21.96
2018-07-31T05:54:50.424Z,22.18
2018-07-31T05:56:50.650Z,22.26
2018-07-31T05:58:49.697Z,22.47
2018-07-31T06:00:49.920Z,22.64
2018-07-31T06:02:49.923Z,22.76
2018-07-31T06:04:50.194Z,23.09
2018-07-31T06:06:50.488Z,23.2
2018-07-31T06:08:50.668Z,23.3
2018-07-31T06:10:49.769Z,23.4
2018-07-31T06:12:49.750Z,23.5
2018-07-31T06:14:49.778Z,23.5
2018-07-31T06:16:50.026Z,23.5
2018-07-31T06:18:50.156Z,23.6
2018-07-31T06:20:50.204Z,23.7
2018-07-31T06:22:50.180Z,23.8
2018-07-31T06:24:50.319Z,23.8
2018-07-31T06:26:50.578Z,23.8
2018-07-31T06:28:50.709Z,24.0
2018-07-31T06:30:49.783Z,24.1
2018-07-31T06:32:49.976Z,24.1
2018-07-31T06:34:50.567Z,24.2
2018-07-31T06:36:49.783Z,24.3
2018-07-31T06:38:49.776Z,24.4
2018-07-31T06:40:49.950Z,24.4
2018-07-31T06:42:49.987Z,24.4
2018-07-31T06:44:50.118Z,24.6
2018-07-31T06:46:50.219Z,24.6
2018-07-31T06:48:50.304Z,24.7
2018-07-31T06:50:50.403Z,24.8
2018-07-31T06:52:50.519Z,24.8
2018-07-31T06:54:50.643Z,24.9
2018-07-31T06:56:50.412Z,25.1
2018-07-31T06:58:49.706Z,25.3
2018-07-31T07:00:50.697Z,25.4
2018-07-31T07:02:49.706Z,25.5
2018-07-31T07:04:50.492Z,25.5
2018-07-31T07:06:49.827Z,25.6
2018-07-31T07:08:49.915Z,25.6
2018-07-31T07:10:50.059Z,25.8
2018-07-31T07:12:50.074Z,25.9
2018-07-31T07:14:50.203Z,25.9
2018-07-31T07:16:50.626Z,26.0
2018-07-31T07:18:50.650Z,26.2
2018-07-31T07:20:50.762Z,26.2
2018-07-31T07:22:49.939Z,26.2
2018-07-31T07:24:50.215Z,26.3
2018-07-31T07:26:50.532Z,26.4
2018-07-31T07:28:50.521Z,26.6
2018-07-31T07:30:50.634Z,26.7
2018-07-31T07:32:49.778Z,26.7
2018-07-31T07:34:50.309Z,26.8
2018-07-31T07:36:50.543Z,26.9
2018-07-31T07:38:50.631Z,27.0
2018-07-31T07:40:49.748Z,27.1
2018-07-31T07:42:50.076Z,27.1
2018-07-31T07:44:50.125Z,27.2
2018-07-31T07:46:50.389Z,27.4
2018-07-31T07:48:50.409Z,27.5
2018-07-31T07:50:50.511Z,27.5
2018-07-31T07:52:50.626Z,27.6
2018-07-31T07:54:50.611Z,27.6
2018-07-31T07:56:49.825Z,27.7
2018-07-31T07:58:49.829Z,27.8
2018-07-31T08:00:49.995Z,27.8
2018-07-31T08:02:50.007Z,27.9
2018-07-31T08:04:50.254Z,28.0
2018-07-31T08:06:50.631Z,28.1
2018-07-31T08:08:49.778Z,28.2
2018-07-31T08:10:49.867Z,28.2
2018-07-31T08:12:49.788Z,28.3
2018-07-31T08:14:49.957Z,28.4
2018-07-31T08:16:50.125Z,28.5
2018-07-31T08:18:50.119Z,28.5
2018-07-31T08:20:50.133Z,28.6
2018-07-31T08:22:50.204Z,28.7
2018-07-31T08:24:50.252Z,28.8
2018-07-31T08:26:50.595Z,28.9
2018-07-31T08:28:50.614Z,28.9
2018-07-31T08:30:50.677Z,29.0
2018-07-31T08:32:49.988Z,29.1
2018-07-31T08:34:50.298Z,29.2
2018-07-31T08:36:50.513Z,29.2
2018-07-31T08:38:50.633Z,29.4
2018-07-31T08:40:49.761Z,29.5
2018-07-31T08:42:49.993Z,29.6
2018-07-31T08:44:50.012Z,29.6
2018-07-31T08:46:50.221Z,29.8
2018-07-31T08:48:50.315Z,29.8
2018-07-31T08:50:50.359Z,29.8
2018-07-31T08:52:50.456Z,29.9
2018-07-31T08:54:50.452Z,30.0
2018-07-31T08:56:49.849Z,30.0
2018-07-31T08:58:50.042Z,30.0
2018-07-31T09:00:50.019Z,30.2
2018-07-31T09:02:50.234Z,30.3
2018-07-31T09:04:49.748Z,30.4
2018-07-31T09:06:50.080Z,30.4
2018-07-31T09:08:50.515Z,30.5
2018-07-31T09:10:50.747Z,30.6
2018-07-31T09:12:49.838Z,30.6
2018-07-31T09:14:49.903Z,30.6
2018-07-31T09:16:50.216Z,30.7
2018-07-31T09:18:50.215Z,30.8
2018-07-31T09:20:50.181Z,31.0
2018-07-31T09:22:50.214Z,31.0
2018-07-31T09:24:50.824Z,31.0
2018-07-31T09:26:50.282Z,31.0
2018-07-31T09:28:50.301Z,31.1
2018-07-31T09:30:50.946Z,31.3
2018-07-31T09:32:50.240Z,31.3
2018-07-31T09:34:50.137Z,31.4
2018-07-31T09:36:50.289Z,31.5
2018-07-31T09:38:50.267Z,31.5
2018-07-31T09:40:50.518Z,31.6
2018-07-31T09:42:49.730Z,31.6
2018-07-31T09:44:49.719Z,31.7
2018-07-31T09:46:49.980Z,31.8
2018-07-31T09:48:50.075Z,31.9
2018-07-31T09:50:50.194Z,31.9
2018-07-31T09:52:50.211Z,31.9
2018-07-31T09:54:50.182Z,32.0
2018-07-31T09:56:50.450Z,32.1
2018-07-31T09:58:50.527Z,32.2
2018-07-31T10:00:50.616Z,32.3
2018-07-31T10:02:50.555Z,32.3
2018-07-31T10:04:50.255Z,32.3
2018-07-31T10:06:50.656Z,32.4
2018-07-31T10:08:49.772Z,32.4
2018-07-31T10:10:49.760Z,32.4
2018-07-31T10:12:50.002Z,32.5
2018-07-31T10:14:50.248Z,32.5
2018-07-31T10:16:50.484Z,32.6
2018-07-31T10:18:50.546Z,32.7
2018-07-31T10:20:50.625Z,32.7
2018-07-31T10:22:49.760Z,32.7
2018-07-31T10:24:49.866Z,32.8
2018-07-31T10:26:50.266Z,32.9
2018-07-31T10:28:50.283Z,33.0
2018-07-31T10:30:50.882Z,33.0
2018-07-31T10:32:50.138Z,33.0
2018-07-31T10:34:50.619Z,33.1
2018-07-31T10:36:49.987Z,33.1
2018-07-31T10:38:50.151Z,33.3
2018-07-31T10:40:50.223Z,33.4
2018-07-31T10:42:50.292Z,33.4
2018-07-31T10:44:50.435Z,33.4
2018-07-31T10:46:49.884Z,33.4
2018-07-31T10:48:49.868Z,33.5
2018-07-31T10:50:49.870Z,33.5
2018-07-31T10:52:49.908Z,33.6
2018-07-31T10:54:49.993Z,33.7
2018-07-31T10:56:50.219Z,33.8
2018-07-31T10:58:50.229Z,33.8
2018-07-31T11:00:50.392Z,33.8
2018-07-31T11:02:50.987Z,33.8
2018-07-31T11:04:49.807Z,33.8
2018-07-31T11:06:50.124Z,33.9
2018-07-31T11:08:50.270Z,34.0
2018-07-31T11:10:50.407Z,34.0
2018-07-31T11:12:50.532Z,34.0
2018-07-31T11:14:50.524Z,34.1
2018-07-31T11:16:49.972Z,34.2
2018-07-31T11:18:50.045Z,34.2
2018-07-31T11:20:50.202Z,34.2
2018-07-31T11:22:50.263Z,34.3
2018-07-31T11:24:50.361Z,34.4
2018-07-31T11:26:50.621Z,34.6
2018-07-31T11:28:49.797Z,34.6
2018-07-31T11:30:49.925Z,34.6
2018-07-31T11:32:50.010Z,34.6
2018-07-31T11:34:50.387Z,34.7
2018-07-31T11:36:49.867Z,34.7
2018-07-31T11:38:49.860Z,34.6
2018-07-31T11:40:49.929Z,34.6
2018-07-31T11:42:50.272Z,34.6
2018-07-31T11:44:50.250Z,34.6
2018-07-31T11:46:50.450Z,34.7
2018-07-31T11:48:50.605Z,34.7
2018-07-31T11:50:49.956Z,34.8
2018-07-31T11:52:50.205Z,34.8
2018-07-31T11:54:50.181Z,34.8
2018-07-31T11:56:50.430Z,34.8
2018-07-31T11:58:50.530Z,34.9
2018-07-31T12:00:50.684Z,35.0
2018-07-31T12:02:49.815Z,35.0
2018-07-31T12:04:50.266Z,35.1
2018-07-31T12:06:50.507Z,35.1
2018-07-31T12:08:50.538Z,35.1
2018-07-31T12:10:50.672Z,35.1
2018-07-31T12:12:49.934Z,35.2
2018-07-31T12:14:50.066Z,35.1
2018-07-31T12:16:50.317Z,35.1
2018-07-31T12:18:50.294Z,35.2
2018-07-31T12:20:50.726Z,35.3
2018-07-31T12:22:50.070Z,35.4
2018-07-31T12:24:50.130Z,35.4
2018-07-31T12:26:50.502Z,35.4
2018-07-31T12:28:50.492Z,35.5
2018-07-31T12:30:50.660Z,35.5
2018-07-31T12:32:50.060Z,35.5
2018-07-31T12:34:50.654Z,35.4
2018-07-31T12:36:49.954Z,35.4
2018-07-31T12:38:50.024Z,35.3
2018-07-31T12:40:50.046Z,35.3
2018-07-31T12:42:50.069Z,35.3
2018-07-31T12:44:50.202Z,35.3
2018-07-31T12:46:50.500Z,35.4
2018-07-31T12:48:50.480Z,35.5
2018-07-31T12:50:50.499Z,35.6
2018-07-31T12:52:50.598Z,35.6
2018-07-31T12:54:50.660Z,35.6
2018-07-31T12:56:50.028Z,35.8
2018-07-31T12:58:50.057Z,35.8
2018-07-31T13:00:50.082Z,35.9
2018-07-31T13:02:50.192Z,35.9
2018-07-31T13:04:49.764Z,35.9
2018-07-31T13:06:50.108Z,36.0
2018-07-31T13:08:50.149Z,36.0
2018-07-31T13:10:50.168Z,36.2
2018-07-31T13:12:50.267Z,36.2
2018-07-31T13:14:50.314Z,36.2
2018-07-31T13:16:50.508Z,36.2
2018-07-31T13:18:50.646Z,36.2
2018-07-31T13:20:49.761Z,36.2
2018-07-31T13:22:50.142Z,36.2
2018-07-31T13:24:50.389Z,36.2
2018-07-31T13:26:50.579Z,36.3
2018-07-31T13:28:50.702Z,36.3
2018-07-31T13:30:50.081Z,36.3
2018-07-31T13:32:50.241Z,36.3
2018-07-31T13:34:50.629Z,36.3
2018-07-31T13:36:49.938Z,36.4
2018-07-31T13:38:50.067Z,36.4
2018-07-31T13:40:50.103Z,36.4
2018-07-31T13:42:50.089Z,36.4
2018-07-31T13:44:50.059Z,36.4
2018-07-31T13:46:50.364Z,36.4
2018-07-31T13:48:50.402Z,36.4
2018-07-31T13:50:50.390Z,36.4
2018-07-31T13:52:50.499Z,36.6
2018-07-31T13:54:50.581Z,36.6
2018-07-31T13:56:49.922Z,36.7
2018-07-31T13:58:49.952Z,36.7
2018-07-31T14:00:49.910Z,36.8
2018-07-31T14:02:49.937Z,36.8
2018-07-31T14:04:50.201Z,36.8
2018-07-31T14:06:50.354Z,36.9
2018-07-31T14:08:50.476Z,36.9
2018-07-31T14:10:50.540Z,36.9
2018-07-31T14:12:50.683Z,36.9
2018-07-31T14:14:50.683Z,36.9
2018-07-31T14:16:49.956Z,36.9
2018-07-31T14:18:49.903Z,36.9
2018-07-31T14:20:50.037Z,37.0
2018-07-31T14:22:50.092Z,37.0
2018-07-31T14:24:50.076Z,37.0
2018-07-31T14:26:50.283Z,37.0
2018-07-31T14:28:50.344Z,37.0
2018-07-31T14:30:50.799Z,37.1
2018-07-31T14:32:49.980Z,37.2
2018-07-31T14:34:50.205Z,37.2
2018-07-31T14:36:50.475Z,37.2
2018-07-31T14:38:50.789Z,37.2
2018-07-31T14:40:49.972Z,37.2
2018-07-31T14:42:50.252Z,37.1
2018-07-31T14:44:50.550Z,37.1
2018-07-31T14:46:49.746Z,37.1
2018-07-31T14:48:50.643Z,37.1
2018-07-31T14:50:49.850Z,37.1
2018-07-31T14:52:50.139Z,37.1
2018-07-31T14:54:50.273Z,37.1
2018-07-31T14:56:50.412Z,37.1
2018-07-31T14:58:50.453Z,37.1
2018-07-31T15:00:50.539Z,37.1
2018-07-31T15:02:49.719Z,37.1
2018-07-31T15:04:50.187Z,37.1
2018-07-31T15:06:50.369Z,37.1
2018-07-31T15:08:50.514Z,37.1
2018-07-31T15:10:51.237Z,37.2
2018-07-31T15:12:50.514Z,37.3
2018-07-31T15:14:50.528Z,37.2
2018-07-31T15:16:49.841Z,37.2
2018-07-31T15:18:49.944Z,37.3
2018-07-31T15:20:49.918Z,37.3
2018-07-31T15:22:49.921Z,37.3
2018-07-31T15:24:49.963Z,37.3
2018-07-31T15:26:50.210Z,37.3
2018-07-31T15:28:50.216Z,37.3
2018-07-31T15:30:50.216Z,37.3
2018-07-31T15:32:50.458Z,37.3
2018-07-31T15:34:50.167Z,37.3
2018-07-31T15:36:50.366Z,37.3
2018-07-31T15:38:50.354Z,37.3
2018-07-31T15:40:50.805Z,37.3
2018-07-31T15:42:49.998Z,37.3
2018-07-31T15:44:49.960Z,37.3
2018-07-31T15:46:50.188Z,37.3
2018-07-31T15:48:50.263Z,37.3
2018-07-31T15:50:50.308Z,37.2
2018-07-31T15:52:50.356Z,37.2
2018-07-31T15:54:50.331Z,37.2
2018-07-31T15:56:50.589Z,37.2
2018-07-31T15:58:49.779Z,37.2
2018-07-31T16:00:49.730Z,37.2
2018-07-31T16:02:49.708Z,37.2
2018-07-31T16:04:50.421Z,37.2
2018-07-31T16:06:49.738Z,37.2
2018-07-31T16:08:49.830Z,37.2
2018-07-31T16:10:49.812Z,37.3
2018-07-31T16:12:49.863Z,37.3
2018-07-31T16:14:49.989Z,37.3
2018-07-31T16:16:50.296Z,37.3
2018-07-31T16:18:50.286Z,37.4
2018-07-31T16:20:50.329Z,37.4
2018-07-31T16:22:50.629Z,37.4
2018-07-31T16:24:49.731Z,37.4
2018-07-31T16:26:50.056Z,37.4
2018-07-31T16:28:50.167Z,37.4
2018-07-31T16:30:50.261Z,37.4
2018-07-31T16:32:50.275Z,37.4
2018-07-31T16:34:50.696Z,37.4
2018-07-31T16:36:49.980Z,37.4
2018-07-31T16:38:50.074Z,37.4
2018-07-31T16:40:50.038Z,37.4
2018-07-31T16:42:50.057Z,37.3
2018-07-31T16:44:50.047Z,37.3
2018-07-31T16:46:50.319Z,37.2
2018-07-31T16:48:50.402Z,37.2
2018-07-31T16:50:50.497Z,37.2
2018-07-31T16:52:50.517Z,37.2
2018-07-31T16:54:50.612Z,37.2
2018-07-31T16:56:50.109Z,37.1
2018-07-31T16:58:50.278Z,37.1
2018-07-31T17:00:50.363Z,37.2
2018-07-31T17:02:50.402Z,37.2
2018-07-31T17:04:49.863Z,37.1
2018-07-31T17:06:50.168Z,37.1
2018-07-31T17:08:50.266Z,37.1
2018-07-31T17:10:50.350Z,37.1
2018-07-31T17:12:50.414Z,37.1
2018-07-31T17:14:50.369Z,37.0
2018-07-31T17:16:49.705Z,36.89
2018-07-31T17:18:49.878Z,36.88
2018-07-31T17:20:49.868Z,36.65
2018-07-31T17:22:49.889Z,36.56
2018-07-31T17:24:50.069Z,36.47
2018-07-31T17:26:50.303Z,36.36
2018-07-31T17:28:50.352Z,36.05
2018-07-31T17:30:50.375Z,35.85
2018-07-31T17:32:50.394Z,35.75
2018-07-31T17:34:49.916Z,35.53
2018-07-31T17:36:50.086Z,35.50
2018-07-31T17:38:50.017Z,35.51
2018-07-31T17:40:50.053Z,35.42
2018-07-31T17:42:50.158Z,35.30
2018-07-31T17:44:50.134Z,35.13
2018-07-31T17:46:50.351Z,35.02
2018-07-31T17:48:50.428Z,34.93
2018-07-31T17:50:50.546Z,34.83
2018-07-31T17:52:51.000Z,34.76
2018-07-31T17:54:50.239Z,34.61
2018-07-31T17:56:50.611Z,34.54
2018-07-31T17:58:49.840Z,34.5
2018-07-31T18:00:49.832Z,34.4
2018-07-31T18:02:49.868Z,34.26
2018-07-31T18:04:50.578Z,34.26
2018-07-31T18:06:49.965Z,34.1
2018-07-31T18:08:49.990Z,33.9
2018-07-31T18:10:50.000Z,33.7
2018-07-31T18:12:49.948Z,33.6
2018-07-31T18:14:50.628Z,33.5
2018-07-31T18:16:49.961Z,33.5
2018-07-31T18:18:50.043Z,33.3
2018-07-31T18:20:50.150Z,33.2
2018-07-31T18:22:50.218Z,33.1
2018-07-31T18:24:50.395Z,33.0
2018-07-31T18:26:49.718Z,33.0
2018-07-31T18:28:49.946Z,32.8
2018-07-31T18:30:50.002Z,32.7
2018-07-31T18:32:50.106Z,32.6
2018-07-31T18:34:50.723Z,32.5
2018-07-31T18:36:49.996Z,32.5
2018-07-31T18:38:50.062Z,32.3
2018-07-31T18:40:50.312Z,32.2
2018-07-31T18:42:50.421Z,32.2
2018-07-31T18:44:50.365Z,32.0
2018-07-31T18:46:49.681Z,31.9
2018-07-31T18:48:49.865Z,31.8
2018-07-31T18:50:49.875Z,31.6
2018-07-31T18:52:49.863Z,31.6
2018-07-31T18:54:49.966Z,31.6
2018-07-31T18:56:50.204Z,31.4
2018-07-31T18:58:50.171Z,31.3
2018-07-31T19:00:50.370Z,31.3
2018-07-31T19:02:50.478Z,31.2
2018-07-31T19:04:50.034Z,31.0
2018-07-31T19:06:50.591Z,31.0
2018-07-31T19:08:50.659Z,30.8
2018-07-31T19:10:50.678Z,30.8
2018-07-31T19:12:49.841Z,30.8
2018-07-31T19:14:49.923Z,30.6
2018-07-31T19:16:50.265Z,30.6
2018-07-31T19:18:50.277Z,30.5
2018-07-31T19:20:50.632Z,30.4
2018-07-31T19:22:49.762Z,30.4
2018-07-31T19:24:49.728Z,30.3
2018-07-31T19:26:49.897Z,30.2
2018-07-31T19:28:50.101Z,30.2
2018-07-31T19:30:50.368Z,30.2
2018-07-31T19:32:50.386Z,30.1
2018-07-31T19:34:49.801Z,30.1
2018-07-31T19:36:50.060Z,30.0
2018-07-31T19:38:50.175Z,29.9
2018-07-31T19:40:50.168Z,29.9
2018-07-31T19:42:50.233Z,29.8
2018-07-31T19:44:50.379Z,29.8
2018-07-31T19:46:49.730Z,29.7
2018-07-31T19:48:49.757Z,29.6
2018-07-31T19:50:49.786Z,29.6
2018-07-31T19:52:49.830Z,29.6
2018-07-31T19:54:50.146Z,29.5
2018-07-31T19:56:50.473Z,29.4
2018-07-31T19:58:50.477Z,29.4
2018-07-31T20:00:50.558Z,29.4
2018-07-31T20:02:49.760Z,29.3
2018-07-31T20:04:50.107Z,29.3
2018-07-31T20:06:50.260Z,29.2
2018-07-31T20:08:50.276Z,29.2
2018-07-31T20:10:50.325Z,29.1
2018-07-31T20:12:50.287Z,29.0
2018-07-31T20:14:50.404Z,28.9
2018-07-31T20:16:50.698Z,28.9
2018-07-31T20:18:50.653Z,28.9
2018-07-31T20:20:50.851Z,28.8
2018-07-31T20:22:50.018Z,28.7
2018-07-31T20:24:50.168Z,28.7
2018-07-31T20:26:50.409Z,28.6
2018-07-31T20:28:50.367Z,28.5
2018-07-31T20:30:50.459Z,28.4
2018-07-31T20:32:50.595Z,28.3
2018-07-31T20:34:50.479Z,28.3
2018-07-31T20:36:49.876Z,28.2
2018-07-31T20:38:49.985Z,28.2
2018-07-31T20:40:50.032Z,28.1
2018-07-31T20:42:50.009Z,28.0
2018-07-31T20:44:50.047Z,28.0
2018-07-31T20:46:50.385Z,28.0
2018-07-31T20:48:50.452Z,27.79
2018-07-31T20:50:50.484Z,27.66
2018-07-31T20:52:50.481Z,27.58
2018-07-31T20:54:50.608Z,27.49
2018-07-31T20:56:49.942Z,27.42
2018-07-31T20:58:49.966Z,27.34
2018-07-31T21:00:49.955Z,27.30
2018-07-31T21:02:50.057Z,27.23
2018-07-31T21:04:50.423Z,27.12
2018-07-31T21:06:49.755Z,27.10
2018-07-31T21:08:49.783Z,27.02
2018-07-31T21:10:49.823Z,26.92
2018-07-31T21:12:49.984Z,26.86
2018-07-31T21:14:50.044Z,26.81
2018-07-31T21:16:50.340Z,26.75
2018-07-31T21:18:50.726Z,26.71
2018-07-31T21:20:49.898Z,26.63
2018-07-31T21:22:50.047Z,26.57
2018-07-31T21:24:50.051Z,26.45
2018-07-31T21:26:50.331Z,26.40
2018-07-31T21:28:50.398Z,26.34
2018-07-31T21:30:50.477Z,26.25
2018-07-31T21:32:50.623Z,26.18
2018-07-31T21:34:50.309Z,26.11
2018-07-31T21:36:50.592Z,26.07
2018-07-31T21:38:50.697Z,25.99
2018-07-31T21:40:49.806Z,25.94
2018-07-31T21:42:49.836Z,25.87
2018-07-31T21:44:49.861Z,25.87
2018-07-31T21:46:50.140Z,25.84
2018-07-31T21:48:50.135Z,25.79
2018-07-31T21:50:50.434Z,25.75
2018-07-31T21:52:50.942Z,25.72
2018-07-31T21:54:50.594Z,25.64
2018-07-31T21:56:49.899Z,25.59
2018-07-31T21:58:49.944Z,25.55
2018-07-31T22:00:50.134Z,25.55
2018-07-31T22:02:50.665Z,25.43
2018-07-31T22:04:50.170Z,25.40
2018-07-31T22:06:50.368Z,25.38
2018-07-31T22:08:50.438Z,25.36
2018-07-31T22:10:50.533Z,25.31
2018-07-31T22:12:50.579Z,25.31
2018-07-31T22:14:50.588Z,25.24
2018-07-31T22:16:50.692Z,25.08
2018-07-31T22:18:49.828Z,24.90
2018-07-31T22:20:49.945Z,24.65
2018-07-31T22:22:50.040Z,24.51
2018-07-31T22:24:50.450Z,24.27
2018-07-31T22:26:50.099Z,24.27
2018-07-31T22:28:50.696Z,24.06
2018-07-31T22:30:49.769Z,24.00
2018-07-31T22:32:49.747Z,23.95
2018-07-31T22:34:50.370Z,23.86
2018-07-31T22:36:50.600Z,23.80
2018-07-31T22:38:50.651Z,23.76
2018-07-31T22:40:50.676Z,23.80
2018-07-31T22:42:49.936Z,23.74
2018-07-31T22:44:49.997Z,23.70
2018-07-31T22:46:50.195Z,23.66
2018-07-31T22:48:50.323Z,23.71
2018-07-31T22:50:50.412Z,23.67
2018-07-31T22:52:50.476Z,23.64
2018-07-31T22:54:50.507Z,23.57
2018-07-31T22:56:49.888Z,23.53
2018-07-31T22:58:50.060Z,23.61
2018-07-31T23:00:50.071Z,23.63
2018-07-31T23:02:50.145Z,23.60
2018-07-31T23:04:50.570Z,23.57
2018-07-31T23:06:49.915Z,23.47
2018-07-31T23:08:49.959Z,23.44
2018-07-31T23:10:49.941Z,23.41
2018-07-31T23:12:50.048Z,23.37
2018-07-31T23:14:50.124Z,23.35
2018-07-31T23:16:50.351Z,23.33
2018-07-31T23:18:50.391Z,23.30
2018-07-31T23:20:50.716Z,23.30
2018-07-31T23:22:50.032Z,23.27
2018-07-31T23:24:49.973Z,23.21
2018-07-31T23:26:50.145Z,23.15
2018-07-31T23:28:50.353Z,23.13
2018-07-31T23:30:50.687Z,23.06
2018-07-31T23:32:49.690Z,23.02
2018-07-31T23:34:50.265Z,22.93
2018-07-31T23:36:50.672Z,22.90
2018-07-31T23:38:49.877Z,22.83
2018-07-31T23:40:49.859Z,22.81
2018-07-31T23:42:49.832Z,22.74
2018-07-31T23:44:49.909Z,22.70
2018-07-31T23:46:50.163Z,22.66
2018-07-31T23:48:50.095Z,22.63
2018-07-31T23:50:50.235Z,22.57
2018-07-31T23:52:50.288Z,22.54
2018-07-31T23:54:50.354Z,22.48
2018-07-31T23:56:49.709Z,22.43
2018-07-31T23:58:49.691Z,22.45
